sensor_id;sensor_type;location;lat;lon;timestamp;temperature;humidity
9723;DHT22;4900;49.306;8.500;2023-09-19T00:02:16;19.46;76.82
9723;DHT22;4900;49.306;8.500;2023-09-19T00:04:43;19.37;76.92
9723;DHT22;4900;49.306;8.500;2023-09-19T00:07:08;19.39;77.07
9723;DHT22;4900;49.306;8.500;2023-09-19T00:09:37;19.36;77.07
9723;DHT22;4900;49.306;8.500;2023-09-19T00:12:06;19.36;77.24
9723;DHT22;4900;49.306;8.500;2023-09-19T00:14:34;19.30;77.42
9723;DHT22;4900;49.306;8.500;2023-09-19T00:17:03;19.26;77.59
9723;DHT22;4900;49.306;8.500;2023-09-19T00:19:34;19.20;77.89
9723;DHT22;4900;49.306;8.500;2023-09-19T00:21:59;19.19;77.97
9723;DHT22;4900;49.306;8.500;2023-09-19T00:24:24;19.16;78.11
9723;DHT22;4900;49.306;8.500;2023-09-19T00:26:50;19.12;78.23
9723;DHT22;4900;49.306;8.500;2023-09-19T00:29:15;19.14;78.25
9723;DHT22;4900;49.306;8.500;2023-09-19T00:31:44;19.10;78.54
9723;DHT22;4900;49.306;8.500;2023-09-19T00:34:10;19.13;78.43
9723;DHT22;4900;49.306;8.500;2023-09-19T00:36:37;19.09;78.59
9723;DHT22;4900;49.306;8.500;2023-09-19T00:39:05;19.09;78.52
9723;DHT22;4900;49.306;8.500;2023-09-19T00:41:31;19.09;78.48
9723;DHT22;4900;49.306;8.500;2023-09-19T00:43:57;19.09;78.46
9723;DHT22;4900;49.306;8.500;2023-09-19T00:46:23;19.04;78.69
9723;DHT22;4900;49.306;8.500;2023-09-19T00:48:49;19.02;78.82
9723;DHT22;4900;49.306;8.500;2023-09-19T00:51:15;18.99;78.98
9723;DHT22;4900;49.306;8.500;2023-09-19T00:53:45;18.99;79.05
9723;DHT22;4900;49.306;8.500;2023-09-19T00:56:11;19.00;78.85
9723;DHT22;4900;49.306;8.500;2023-09-19T00:58:37;18.99;79.04
9723;DHT22;4900;49.306;8.500;2023-09-19T01:01:04;18.98;79.09
9723;DHT22;4900;49.306;8.500;2023-09-19T01:03:33;18.98;79.15
9723;DHT22;4900;49.306;8.500;2023-09-19T01:05:59;18.99;79.19
9723;DHT22;4900;49.306;8.500;2023-09-19T01:08:26;18.98;79.45
9723;DHT22;4900;49.306;8.500;2023-09-19T01:11:04;18.93;79.55
9723;DHT22;4900;49.306;8.500;2023-09-19T01:13:53;18.96;79.66
9723;DHT22;4900;49.306;8.500;2023-09-19T01:16:37;18.98;79.40
9723;DHT22;4900;49.306;8.500;2023-09-19T01:22:42;18.96;79.55
9723;DHT22;4900;49.306;8.500;2023-09-19T01:30:44;18.95;79.27
9723;DHT22;4900;49.306;8.500;2023-09-19T01:33:10;18.95;79.16
9723;DHT22;4900;49.306;8.500;2023-09-19T01:35:40;18.93;79.14
9723;DHT22;4900;49.306;8.500;2023-09-19T01:38:08;18.91;79.20
9723;DHT22;4900;49.306;8.500;2023-09-19T01:40:50;18.92;79.20
9723;DHT22;4900;49.306;8.500;2023-09-19T01:43:29;18.92;79.12
9723;DHT22;4900;49.306;8.500;2023-09-19T01:46:05;18.93;79.01
9723;DHT22;4900;49.306;8.500;2023-09-19T01:51:02;18.93;79.10
9723;DHT22;4900;49.306;8.500;2023-09-19T01:56:05;18.89;79.30
9723;DHT22;4900;49.306;8.500;2023-09-19T01:58:51;18.93;79.41
9723;DHT22;4900;49.306;8.500;2023-09-19T02:01:22;18.93;79.52
9723;DHT22;4900;49.306;8.500;2023-09-19T02:03:48;18.95;79.55
9723;DHT22;4900;49.306;8.500;2023-09-19T02:06:17;18.99;79.43
9723;DHT22;4900;49.306;8.500;2023-09-19T02:08:44;19.06;79.17
9723;DHT22;4900;49.306;8.500;2023-09-19T02:11:13;19.09;79.07
9723;DHT22;4900;49.306;8.500;2023-09-19T02:13:39;19.07;78.95
9723;DHT22;4900;49.306;8.500;2023-09-19T02:16:06;19.10;78.83
9723;DHT22;4900;49.306;8.500;2023-09-19T02:18:32;19.12;78.74
9723;DHT22;4900;49.306;8.500;2023-09-19T02:21:03;19.16;78.60
9723;DHT22;4900;49.306;8.500;2023-09-19T02:23:37;19.19;78.51
9723;DHT22;4900;49.306;8.500;2023-09-19T02:26:03;19.22;78.38
9723;DHT22;4900;49.306;8.500;2023-09-19T02:28:32;19.22;78.35
9723;DHT22;4900;49.306;8.500;2023-09-19T02:30:58;19.24;78.18
9723;DHT22;4900;49.306;8.500;2023-09-19T02:33:24;19.23;78.16
9723;DHT22;4900;49.306;8.500;2023-09-19T02:35:50;19.20;78.17
9723;DHT22;4900;49.306;8.500;2023-09-19T02:38:19;19.26;78.04
9723;DHT22;4900;49.306;8.500;2023-09-19T02:40:50;19.18;78.03
9723;DHT22;4900;49.306;8.500;2023-09-19T02:43:15;19.14;78.01
9723;DHT22;4900;49.306;8.500;2023-09-19T02:45:41;19.10;78.11
9723;DHT22;4900;49.306;8.500;2023-09-19T02:48:06;19.16;78.12
9723;DHT22;4900;49.306;8.500;2023-09-19T02:50:32;19.16;77.85
9723;DHT22;4900;49.306;8.500;2023-09-19T02:52:59;19.13;77.90
9723;DHT22;4900;49.306;8.500;2023-09-19T02:55:24;19.16;77.63
9723;DHT22;4900;49.306;8.500;2023-09-19T02:57:51;19.18;77.42
9723;DHT22;4900;49.306;8.500;2023-09-19T03:00:19;19.26;77.14
9723;DHT22;4900;49.306;8.500;2023-09-19T03:02:46;19.22;77.05
9723;DHT22;4900;49.306;8.500;2023-09-19T03:05:12;19.18;76.92
9723;DHT22;4900;49.306;8.500;2023-09-19T03:07:37;19.18;76.72
9723;DHT22;4900;49.306;8.500;2023-09-19T03:10:05;19.16;76.63
9723;DHT22;4900;49.306;8.500;2023-09-19T03:12:31;19.18;76.50
9723;DHT22;4900;49.306;8.500;2023-09-19T03:14:57;19.06;76.78
9723;DHT22;4900;49.306;8.500;2023-09-19T03:17:22;19.04;76.90
9723;DHT22;4900;49.306;8.500;2023-09-19T03:19:47;19.06;76.92
9723;DHT22;4900;49.306;8.500;2023-09-19T03:22:14;18.99;77.36
9723;DHT22;4900;49.306;8.500;2023-09-19T03:24:39;19.02;77.38
9723;DHT22;4900;49.306;8.500;2023-09-19T03:27:05;19.00;77.47
9723;DHT22;4900;49.306;8.500;2023-09-19T03:29:30;19.06;77.21
9723;DHT22;4900;49.306;8.500;2023-09-19T03:31:56;19.06;77.08
9723;DHT22;4900;49.306;8.500;2023-09-19T03:34:21;19.03;77.19
9723;DHT22;4900;49.306;8.500;2023-09-19T03:36:46;19.06;77.14
9723;DHT22;4900;49.306;8.500;2023-09-19T03:39:12;19.03;77.05
9723;DHT22;4900;49.306;8.500;2023-09-19T03:41:40;19.02;76.91
9723;DHT22;4900;49.306;8.500;2023-09-19T03:44:05;19.02;76.88
9723;DHT22;4900;49.306;8.500;2023-09-19T03:46:31;18.98;76.96
9723;DHT22;4900;49.306;8.500;2023-09-19T03:48:58;18.99;77.05
9723;DHT22;4900;49.306;8.500;2023-09-19T03:51:23;18.99;77.03
9723;DHT22;4900;49.306;8.500;2023-09-19T03:53:48;18.95;76.99
9723;DHT22;4900;49.306;8.500;2023-09-19T03:56:17;18.95;76.99
9723;DHT22;4900;49.306;8.500;2023-09-19T03:58:42;18.92;76.90
9723;DHT22;4900;49.306;8.500;2023-09-19T04:01:07;18.93;76.85
9723;DHT22;4900;49.306;8.500;2023-09-19T04:03:33;18.95;76.69
9723;DHT22;4900;49.306;8.500;2023-09-19T04:06:16;18.95;76.57
9723;DHT22;4900;49.306;8.500;2023-09-19T04:08:42;18.95;76.42
9723;DHT22;4900;49.306;8.500;2023-09-19T04:11:09;18.88;76.31
9723;DHT22;4900;49.306;8.500;2023-09-19T04:13:34;18.86;76.21
9723;DHT22;4900;49.306;8.500;2023-09-19T04:16:00;18.84;76.29
9723;DHT22;4900;49.306;8.500;2023-09-19T04:18:26;18.79;76.33
9723;DHT22;4900;49.306;8.500;2023-09-19T04:20:52;18.76;76.23
9723;DHT22;4900;49.306;8.500;2023-09-19T04:23:18;18.74;76.25
9723;DHT22;4900;49.306;8.500;2023-09-19T04:25:46;18.72;76.18
9723;DHT22;4900;49.306;8.500;2023-09-19T04:28:12;18.71;76.14
9723;DHT22;4900;49.306;8.500;2023-09-19T04:30:38;18.68;76.24
9723;DHT22;4900;49.306;8.500;2023-09-19T04:33:05;18.63;76.22
9723;DHT22;4900;49.306;8.500;2023-09-19T04:35:31;18.61;76.26
9723;DHT22;4900;49.306;8.500;2023-09-19T04:37:57;18.56;76.19
9723;DHT22;4900;49.306;8.500;2023-09-19T04:40:23;18.53;76.33
9723;DHT22;4900;49.306;8.500;2023-09-19T04:42:55;18.54;76.34
9723;DHT22;4900;49.306;8.500;2023-09-19T04:45:22;18.51;76.45
9723;DHT22;4900;49.306;8.500;2023-09-19T04:47:47;18.51;76.38
9723;DHT22;4900;49.306;8.500;2023-09-19T04:50:13;18.46;76.46
9723;DHT22;4900;49.306;8.500;2023-09-19T04:52:42;18.46;76.33
9723;DHT22;4900;49.306;8.500;2023-09-19T04:55:13;18.43;76.28
9723;DHT22;4900;49.306;8.500;2023-09-19T04:57:49;18.41;76.18
9723;DHT22;4900;49.306;8.500;2023-09-19T05:00:16;18.39;76.08
9723;DHT22;4900;49.306;8.500;2023-09-19T05:02:45;18.37;76.01
9723;DHT22;4900;49.306;8.500;2023-09-19T05:05:11;18.36;75.86
9723;DHT22;4900;49.306;8.500;2023-09-19T05:07:39;18.31;75.85
9723;DHT22;4900;49.306;8.500;2023-09-19T05:10:05;18.33;75.71
9723;DHT22;4900;49.306;8.500;2023-09-19T05:12:33;18.30;75.63
9723;DHT22;4900;49.306;8.500;2023-09-19T05:14:59;18.24;75.56
9723;DHT22;4900;49.306;8.500;2023-09-19T05:17:24;18.29;75.43
9723;DHT22;4900;49.306;8.500;2023-09-19T05:19:50;18.31;75.35
9723;DHT22;4900;49.306;8.500;2023-09-19T05:22:15;18.37;75.17
9723;DHT22;4900;49.306;8.500;2023-09-19T05:24:40;18.44;74.91
9723;DHT22;4900;49.306;8.500;2023-09-19T05:27:06;18.51;74.63
9723;DHT22;4900;49.306;8.500;2023-09-19T05:29:32;18.58;74.44
9723;DHT22;4900;49.306;8.500;2023-09-19T05:31:58;18.63;74.25
9723;DHT22;4900;49.306;8.500;2023-09-19T05:34:24;18.68;74.06
9723;DHT22;4900;49.306;8.500;2023-09-19T05:36:51;18.69;73.78
9723;DHT22;4900;49.306;8.500;2023-09-19T05:39:17;18.71;73.51
9723;DHT22;4900;49.306;8.500;2023-09-19T05:41:42;18.75;73.30
9723;DHT22;4900;49.306;8.500;2023-09-19T05:44:08;18.76;73.11
9723;DHT22;4900;49.306;8.500;2023-09-19T05:46:33;18.79;72.93
9723;DHT22;4900;49.306;8.500;2023-09-19T05:49:00;18.82;72.66
9723;DHT22;4900;49.306;8.500;2023-09-19T05:51:25;18.86;72.44
9723;DHT22;4900;49.306;8.500;2023-09-19T05:53:54;18.85;72.35
9723;DHT22;4900;49.306;8.500;2023-09-19T05:56:20;18.91;72.16
9723;DHT22;4900;49.306;8.500;2023-09-19T05:58:45;18.91;72.04
9723;DHT22;4900;49.306;8.500;2023-09-19T06:01:11;18.98;71.82
9723;DHT22;4900;49.306;8.500;2023-09-19T06:03:36;18.98;71.63
9723;DHT22;4900;49.306;8.500;2023-09-19T06:06:03;19.07;71.37
9723;DHT22;4900;49.306;8.500;2023-09-19T06:08:29;19.10;71.34
9723;DHT22;4900;49.306;8.500;2023-09-19T06:10:55;19.14;71.18
9723;DHT22;4900;49.306;8.500;2023-09-19T06:13:21;19.27;70.91
9723;DHT22;4900;49.306;8.500;2023-09-19T06:15:46;19.33;70.80
9723;DHT22;4900;49.306;8.500;2023-09-19T06:18:12;19.34;70.63
9723;DHT22;4900;49.306;8.500;2023-09-19T06:20:48;19.40;70.52
9723;DHT22;4900;49.306;8.500;2023-09-19T06:23:16;19.54;70.23
9723;DHT22;4900;49.306;8.500;2023-09-19T06:25:42;19.51;70.36
9723;DHT22;4900;49.306;8.500;2023-09-19T06:28:08;19.54;70.21
9723;DHT22;4900;49.306;8.500;2023-09-19T06:30:38;19.65;70.06
9723;DHT22;4900;49.306;8.500;2023-09-19T06:33:07;19.72;69.80
9723;DHT22;4900;49.306;8.500;2023-09-19T06:35:33;19.79;69.66
9723;DHT22;4900;49.306;8.500;2023-09-19T06:38:02;19.79;69.76
9723;DHT22;4900;49.306;8.500;2023-09-19T06:40:28;19.85;69.49
9723;DHT22;4900;49.306;8.500;2023-09-19T06:42:54;19.87;69.36
9723;DHT22;4900;49.306;8.500;2023-09-19T06:45:21;19.79;69.36
9723;DHT22;4900;49.306;8.500;2023-09-19T06:47:51;19.81;69.17
9723;DHT22;4900;49.306;8.500;2023-09-19T06:50:17;19.85;68.84
9723;DHT22;4900;49.306;8.500;2023-09-19T06:52:44;20.01;68.22
9723;DHT22;4900;49.306;8.500;2023-09-19T06:55:11;19.98;68.37
9723;DHT22;4900;49.306;8.500;2023-09-19T06:57:39;20.08;68.13
9723;DHT22;4900;49.306;8.500;2023-09-19T07:00:06;20.24;67.83
9723;DHT22;4900;49.306;8.500;2023-09-19T07:02:41;20.27;67.71
9723;DHT22;4900;49.306;8.500;2023-09-19T07:05:07;20.43;67.13
9723;DHT22;4900;49.306;8.500;2023-09-19T07:07:33;20.51;66.94
9723;DHT22;4900;49.306;8.500;2023-09-19T07:10:03;20.69;66.36
9723;DHT22;4900;49.306;8.500;2023-09-19T07:12:31;20.89;65.89
9723;DHT22;4900;49.306;8.500;2023-09-19T07:14:58;21.14;65.33
9723;DHT22;4900;49.306;8.500;2023-09-19T07:17:23;21.30;64.91
9723;DHT22;4900;49.306;8.500;2023-09-19T07:19:49;21.59;64.17
9723;DHT22;4900;49.306;8.500;2023-09-19T07:22:15;21.62;63.77
9723;DHT22;4900;49.306;8.500;2023-09-19T07:24:41;21.82;63.34
9723;DHT22;4900;49.306;8.500;2023-09-19T07:27:06;22.17;62.47
9723;DHT22;4900;49.306;8.500;2023-09-19T07:29:32;22.23;61.93
9723;DHT22;4900;49.306;8.500;2023-09-19T07:31:57;22.37;61.62
9723;DHT22;4900;49.306;8.500;2023-09-19T07:34:23;22.76;60.79
9723;DHT22;4900;49.306;8.500;2023-09-19T07:36:48;22.93;60.08
9723;DHT22;4900;49.306;8.500;2023-09-19T07:39:14;23.07;59.61
9723;DHT22;4900;49.306;8.500;2023-09-19T07:41:39;23.04;59.51
9723;DHT22;4900;49.306;8.500;2023-09-19T07:44:05;23.33;58.72
9723;DHT22;4900;49.306;8.500;2023-09-19T07:46:30;23.59;57.94
9723;DHT22;4900;49.306;8.500;2023-09-19T07:48:57;23.75;57.03
9723;DHT22;4900;49.306;8.500;2023-09-19T07:51:22;23.61;57.12
9723;DHT22;4900;49.306;8.500;2023-09-19T07:53:48;23.92;56.79
9723;DHT22;4900;49.306;8.500;2023-09-19T07:56:14;24.09;56.11
9723;DHT22;4900;49.306;8.500;2023-09-19T07:58:40;24.27;55.71
9723;DHT22;4900;49.306;8.500;2023-09-19T08:01:10;24.51;55.27
9723;DHT22;4900;49.306;8.500;2023-09-19T08:03:36;24.68;54.35
9723;DHT22;4900;49.306;8.500;2023-09-19T08:06:06;25.13;54.02
9723;DHT22;4900;49.306;8.500;2023-09-19T08:08:33;25.07;53.51
9723;DHT22;4900;49.306;8.500;2023-09-19T08:11:03;25.19;52.90
9723;DHT22;4900;49.306;8.500;2023-09-19T08:13:41;25.26;52.55
9723;DHT22;4900;49.306;8.500;2023-09-19T08:16:12;25.54;52.50
9723;DHT22;4900;49.306;8.500;2023-09-19T08:18:37;25.31;52.49
9723;DHT22;4900;49.306;8.500;2023-09-19T08:21:06;25.35;52.19
9723;DHT22;4900;49.306;8.500;2023-09-19T08:23:37;25.14;52.41
9723;DHT22;4900;49.306;8.500;2023-09-19T08:26:04;25.47;51.50
9723;DHT22;4900;49.306;8.500;2023-09-19T08:28:32;25.71;51.43
9723;DHT22;4900;49.306;8.500;2023-09-19T08:31:04;25.55;51.23
9723;DHT22;4900;49.306;8.500;2023-09-19T08:33:32;25.86;50.48
9723;DHT22;4900;49.306;8.500;2023-09-19T08:35:57;25.69;50.10
9723;DHT22;4900;49.306;8.500;2023-09-19T08:38:23;25.34;49.93
9723;DHT22;4900;49.306;8.500;2023-09-19T08:40:48;25.81;49.64
9723;DHT22;4900;49.306;8.500;2023-09-19T08:43:13;25.78;49.56
9723;DHT22;4900;49.306;8.500;2023-09-19T08:45:39;25.72;49.54
9723;DHT22;4900;49.306;8.500;2023-09-19T08:50:31;25.90;48.46
9723;DHT22;4900;49.306;8.500;2023-09-19T08:53:09;25.72;48.59
9723;DHT22;4900;49.306;8.500;2023-09-19T08:55:36;25.79;48.03
9723;DHT22;4900;49.306;8.500;2023-09-19T08:58:07;26.00;47.71
9723;DHT22;4900;49.306;8.500;2023-09-19T09:00:34;25.85;48.21
9723;DHT22;4900;49.306;8.500;2023-09-19T09:03:01;26.23;47.89
9723;DHT22;4900;49.306;8.500;2023-09-19T09:05:29;26.43;47.77
9723;DHT22;4900;49.306;8.500;2023-09-19T09:07:57;26.58;47.32
9723;DHT22;4900;49.306;8.500;2023-09-19T09:10:24;26.71;47.18
9723;DHT22;4900;49.306;8.500;2023-09-19T09:12:51;26.81;46.31
9723;DHT22;4900;49.306;8.500;2023-09-19T09:15:21;26.96;45.37
9723;DHT22;4900;49.306;8.500;2023-09-19T09:17:48;26.75;45.31
9723;DHT22;4900;49.306;8.500;2023-09-19T09:20:18;26.64;45.01
9723;DHT22;4900;49.306;8.500;2023-09-19T09:22:54;26.82;44.50
9723;DHT22;4900;49.306;8.500;2023-09-19T09:25:21;26.99;44.61
9723;DHT22;4900;49.306;8.500;2023-09-19T09:27:59;27.20;44.27
9723;DHT22;4900;49.306;8.500;2023-09-19T09:30:34;27.37;43.88
9723;DHT22;4900;49.306;8.500;2023-09-19T09:33:12;27.51;42.86
9723;DHT22;4900;49.306;8.500;2023-09-19T09:35:52;27.59;42.48
9723;DHT22;4900;49.306;8.500;2023-09-19T09:38:19;27.92;42.06
9723;DHT22;4900;49.306;8.500;2023-09-19T09:40:52;27.93;41.97
9723;DHT22;4900;49.306;8.500;2023-09-19T09:43:37;28.13;41.58
9723;DHT22;4900;49.306;8.500;2023-09-19T09:46:13;27.54;42.00
9723;DHT22;4900;49.306;8.500;2023-09-19T09:48:57;27.82;41.65
9723;DHT22;4900;49.306;8.500;2023-09-19T09:51:42;28.41;40.70
9723;DHT22;4900;49.306;8.500;2023-09-19T09:54:12;28.38;40.79
9723;DHT22;4900;49.306;8.500;2023-09-19T09:56:56;28.27;41.01
9723;DHT22;4900;49.306;8.500;2023-09-19T09:59:54;28.71;40.30
9723;DHT22;4900;49.306;8.500;2023-09-19T10:02:35;28.61;40.83
9723;DHT22;4900;49.306;8.500;2023-09-19T10:05:12;28.72;40.33
9723;DHT22;4900;49.306;8.500;2023-09-19T10:07:48;29.07;40.06
9723;DHT22;4900;49.306;8.500;2023-09-19T10:10:38;29.06;39.97
9723;DHT22;4900;49.306;8.500;2023-09-19T10:13:07;28.38;40.33
9723;DHT22;4900;49.306;8.500;2023-09-19T10:15:38;28.51;39.81
9723;DHT22;4900;49.306;8.500;2023-09-19T10:18:07;28.72;39.71
9723;DHT22;4900;49.306;8.500;2023-09-19T10:20:37;28.95;39.44
9723;DHT22;4900;49.306;8.500;2023-09-19T10:23:09;28.96;39.09
9723;DHT22;4900;49.306;8.500;2023-09-19T10:25:38;29.23;38.68
9723;DHT22;4900;49.306;8.500;2023-09-19T10:28:06;28.82;39.23
9723;DHT22;4900;49.306;8.500;2023-09-19T10:30:37;28.47;40.02
9723;DHT22;4900;49.306;8.500;2023-09-19T10:33:07;28.48;39.86
9723;DHT22;4900;49.306;8.500;2023-09-19T10:35:33;28.76;39.70
9723;DHT22;4900;49.306;8.500;2023-09-19T10:38:03;28.79;38.68
9723;DHT22;4900;49.306;8.500;2023-09-19T10:40:32;28.40;38.94
9723;DHT22;4900;49.306;8.500;2023-09-19T10:43:04;28.02;39.43
9723;DHT22;4900;49.306;8.500;2023-09-19T10:45:32;27.93;39.71
9723;DHT22;4900;49.306;8.500;2023-09-19T10:47:59;28.40;39.33
9723;DHT22;4900;49.306;8.500;2023-09-19T10:50:30;28.23;39.44
9723;DHT22;4900;49.306;8.500;2023-09-19T10:53:00;28.78;38.64
9723;DHT22;4900;49.306;8.500;2023-09-19T10:55:32;28.82;38.54
9723;DHT22;4900;49.306;8.500;2023-09-19T10:58:00;29.13;37.70
9723;DHT22;4900;49.306;8.500;2023-09-19T11:00:26;29.14;37.93
9723;DHT22;4900;49.306;8.500;2023-09-19T11:06:08;29.78;37.22
9723;DHT22;4900;49.306;8.500;2023-09-19T11:09:00;29.93;36.69
9723;DHT22;4900;49.306;8.500;2023-09-19T11:11:45;30.19;35.99
9723;DHT22;4900;49.306;8.500;2023-09-19T11:25:47;29.62;36.54
9723;DHT22;4900;49.306;8.500;2023-09-19T11:30:47;29.45;36.63
9723;DHT22;4900;49.306;8.500;2023-09-19T11:33:29;29.61;36.95
9723;DHT22;4900;49.306;8.500;2023-09-19T11:36:11;29.96;36.20
9723;DHT22;4900;49.306;8.500;2023-09-19T11:43:53;29.22;36.30
9723;DHT22;4900;49.306;8.500;2023-09-19T11:46:24;29.61;35.97
9723;DHT22;4900;49.306;8.500;2023-09-19T11:48:50;29.99;35.56
9723;DHT22;4900;49.306;8.500;2023-09-19T11:51:19;30.58;35.36
9723;DHT22;4900;49.306;8.500;2023-09-19T11:53:46;30.96;35.29
9723;DHT22;4900;49.306;8.500;2023-09-19T11:56:20;31.20;34.49
9723;DHT22;4900;49.306;8.500;2023-09-19T11:58:49;31.16;34.79
9723;DHT22;4900;49.306;8.500;2023-09-19T12:01:32;31.82;34.01
9723;DHT22;4900;49.306;8.500;2023-09-19T12:04:00;31.54;33.19
9723;DHT22;4900;49.306;8.500;2023-09-19T12:06:28;30.79;32.95
9723;DHT22;4900;49.306;8.500;2023-09-19T12:09:00;30.74;32.86
9723;DHT22;4900;49.306;8.500;2023-09-19T12:11:31;30.96;32.67
9723;DHT22;4900;49.306;8.500;2023-09-19T12:14:01;30.72;32.83
9723;DHT22;4900;49.306;8.500;2023-09-19T12:16:27;30.51;33.03
9723;DHT22;4900;49.306;8.500;2023-09-19T12:18:56;30.53;33.58
9723;DHT22;4900;49.306;8.500;2023-09-19T12:21:24;30.82;33.92
9723;DHT22;4900;49.306;8.500;2023-09-19T12:24:06;30.95;33.29
9723;DHT22;4900;49.306;8.500;2023-09-19T12:26:45;31.52;32.94
9723;DHT22;4900;49.306;8.500;2023-09-19T12:29:15;31.82;33.32
9723;DHT22;4900;49.306;8.500;2023-09-19T12:31:56;31.44;33.03
9723;DHT22;4900;49.306;8.500;2023-09-19T12:34:29;31.26;33.39
9723;DHT22;4900;49.306;8.500;2023-09-19T12:37:06;30.93;33.23
9723;DHT22;4900;49.306;8.500;2023-09-19T12:39:43;31.03;33.26
9723;DHT22;4900;49.306;8.500;2023-09-19T12:42:14;31.34;33.06
9723;DHT22;4900;49.306;8.500;2023-09-19T12:44:48;31.22;32.82
9723;DHT22;4900;49.306;8.500;2023-09-19T12:47:19;31.23;32.88
9723;DHT22;4900;49.306;8.500;2023-09-19T12:50:25;30.69;33.30
9723;DHT22;4900;49.306;8.500;2023-09-19T12:52:55;31.23;32.80
9723;DHT22;4900;49.306;8.500;2023-09-19T13:00:21;31.05;33.02
9723;DHT22;4900;49.306;8.500;2023-09-19T13:03:12;31.02;33.27
9723;DHT22;4900;49.306;8.500;2023-09-19T13:05:58;31.90;32.91
9723;DHT22;4900;49.306;8.500;2023-09-19T13:08:30;32.03;32.69
9723;DHT22;4900;49.306;8.500;2023-09-19T13:11:13;32.43;31.99
9723;DHT22;4900;49.306;8.500;2023-09-19T13:16:26;32.44;31.49
9723;DHT22;4900;49.306;8.500;2023-09-19T13:18:55;32.14;31.77
9723;DHT22;4900;49.306;8.500;2023-09-19T13:21:31;32.33;31.61
9723;DHT22;4900;49.306;8.500;2023-09-19T13:24:22;31.93;32.35
9723;DHT22;4900;49.306;8.500;2023-09-19T13:26:48;31.41;32.29
9723;DHT22;4900;49.306;8.500;2023-09-19T13:29:14;31.27;32.83
9723;DHT22;4900;49.306;8.500;2023-09-19T13:34:13;31.67;32.42
9723;DHT22;4900;49.306;8.500;2023-09-19T13:36:44;31.26;32.64
9723;DHT22;4900;49.306;8.500;2023-09-19T13:39:09;31.57;32.66
9723;DHT22;4900;49.306;8.500;2023-09-19T13:41:35;30.88;33.44
9723;DHT22;4900;49.306;8.500;2023-09-19T13:44:04;30.72;33.64
9723;DHT22;4900;49.306;8.500;2023-09-19T13:46:30;30.36;34.37
9723;DHT22;4900;49.306;8.500;2023-09-19T13:48:58;30.16;34.57
9723;DHT22;4900;49.306;8.500;2023-09-19T13:51:26;29.81;35.00
9723;DHT22;4900;49.306;8.500;2023-09-19T13:53:51;29.81;35.20
9723;DHT22;4900;49.306;8.500;2023-09-19T13:56:17;29.55;35.20
9723;DHT22;4900;49.306;8.500;2023-09-19T13:58:42;30.00;34.78
9723;DHT22;4900;49.306;8.500;2023-09-19T14:01:08;30.68;34.46
9723;DHT22;4900;49.306;8.500;2023-09-19T14:03:39;30.60;34.22
9723;DHT22;4900;49.306;8.500;2023-09-19T14:06:05;29.93;34.80
9723;DHT22;4900;49.306;8.500;2023-09-19T14:08:30;30.16;34.86
9723;DHT22;4900;49.306;8.500;2023-09-19T14:10:56;29.96;35.32
9723;DHT22;4900;49.306;8.500;2023-09-19T14:13:21;29.90;35.57
9723;DHT22;4900;49.306;8.500;2023-09-19T14:15:47;30.31;35.41
9723;DHT22;4900;49.306;8.500;2023-09-19T14:18:12;30.19;35.38
9723;DHT22;4900;49.306;8.500;2023-09-19T14:20:38;30.57;34.97
9723;DHT22;4900;49.306;8.500;2023-09-19T14:23:06;31.07;34.79
9723;DHT22;4900;49.306;8.500;2023-09-19T14:25:34;30.98;34.68
9723;DHT22;4900;49.306;8.500;2023-09-19T14:28:00;30.89;34.88
9723;DHT22;4900;49.306;8.500;2023-09-19T14:30:25;31.05;34.75
9723;DHT22;4900;49.306;8.500;2023-09-19T14:32:51;30.88;34.54
9723;DHT22;4900;49.306;8.500;2023-09-19T14:35:16;31.26;34.51
9723;DHT22;4900;49.306;8.500;2023-09-19T14:37:42;31.43;34.07
9723;DHT22;4900;49.306;8.500;2023-09-19T14:40:09;30.79;34.31
9723;DHT22;4900;49.306;8.500;2023-09-19T14:42:38;30.21;35.29
9723;DHT22;4900;49.306;8.500;2023-09-19T14:45:04;29.98;35.82
9723;DHT22;4900;49.306;8.500;2023-09-19T14:47:30;29.81;36.42
9723;DHT22;4900;49.306;8.500;2023-09-19T14:49:57;30.00;36.31
9723;DHT22;4900;49.306;8.500;2023-09-19T14:52:23;30.07;36.13
9723;DHT22;4900;49.306;8.500;2023-09-19T14:54:51;29.85;36.50
9723;DHT22;4900;49.306;8.500;2023-09-19T14:57:16;29.99;36.29
9723;DHT22;4900;49.306;8.500;2023-09-19T14:59:42;29.95;36.37
9723;DHT22;4900;49.306;8.500;2023-09-19T15:02:07;30.06;36.17
9723;DHT22;4900;49.306;8.500;2023-09-19T15:04:33;29.72;36.70
9723;DHT22;4900;49.306;8.500;2023-09-19T15:06:59;29.61;36.72
9723;DHT22;4900;49.306;8.500;2023-09-19T15:09:25;29.48;36.90
9723;DHT22;4900;49.306;8.500;2023-09-19T15:11:54;29.85;36.74
9723;DHT22;4900;49.306;8.500;2023-09-19T15:14:20;29.84;36.68
9723;DHT22;4900;49.306;8.500;2023-09-19T15:16:46;29.50;37.17
9723;DHT22;4900;49.306;8.500;2023-09-19T15:19:12;29.17;37.87
9723;DHT22;4900;49.306;8.500;2023-09-19T15:21:37;29.38;37.82
9723;DHT22;4900;49.306;8.500;2023-09-19T15:24:03;29.09;38.17
9723;DHT22;4900;49.306;8.500;2023-09-19T15:26:30;29.10;38.51
9723;DHT22;4900;49.306;8.500;2023-09-19T15:28:55;29.27;38.12
9723;DHT22;4900;49.306;8.500;2023-09-19T15:31:22;29.22;38.48
9723;DHT22;4900;49.306;8.500;2023-09-19T15:33:47;29.30;38.35
9723;DHT22;4900;49.306;8.500;2023-09-19T15:36:14;29.20;38.52
9723;DHT22;4900;49.306;8.500;2023-09-19T15:41:25;28.89;38.75
9723;DHT22;4900;49.306;8.500;2023-09-19T15:43:52;28.93;38.87
9723;DHT22;4900;49.306;8.500;2023-09-19T15:46:19;28.95;39.05
9723;DHT22;4900;49.306;8.500;2023-09-19T15:48:44;28.88;39.20
9723;DHT22;4900;49.306;8.500;2023-09-19T15:51:11;28.76;39.50
9723;DHT22;4900;49.306;8.500;2023-09-19T15:53:45;28.64;39.71
9723;DHT22;4900;49.306;8.500;2023-09-19T15:56:11;28.68;39.69
9723;DHT22;4900;49.306;8.500;2023-09-19T15:58:55;28.55;39.86
9723;DHT22;4900;49.306;8.500;2023-09-19T16:01:21;28.27;40.26
9723;DHT22;4900;49.306;8.500;2023-09-19T16:03:49;28.16;40.27
9723;DHT22;4900;49.306;8.500;2023-09-19T16:06:17;28.17;40.24
9723;DHT22;4900;49.306;8.500;2023-09-19T16:08:47;28.08;40.33
9723;DHT22;4900;49.306;8.500;2023-09-19T16:11:14;27.95;40.72
9723;DHT22;4900;49.306;8.500;2023-09-19T16:13:41;27.99;40.62
9723;DHT22;4900;49.306;8.500;2023-09-19T16:16:11;27.96;40.69
9723;DHT22;4900;49.306;8.500;2023-09-19T16:21:10;27.79;41.04
9723;DHT22;4900;49.306;8.500;2023-09-19T16:23:36;27.61;41.24
9723;DHT22;4900;49.306;8.500;2023-09-19T16:26:07;27.40;41.58
9723;DHT22;4900;49.306;8.500;2023-09-19T16:28:39;27.40;41.44
9723;DHT22;4900;49.306;8.500;2023-09-19T16:31:06;27.29;41.77
9723;DHT22;4900;49.306;8.500;2023-09-19T16:33:33;27.16;41.87
9723;DHT22;4900;49.306;8.500;2023-09-19T16:35:59;26.99;42.18
9723;DHT22;4900;49.306;8.500;2023-09-19T16:38:26;26.71;42.80
9723;DHT22;4900;49.306;8.500;2023-09-19T16:41:00;26.52;42.89
9723;DHT22;4900;49.306;8.500;2023-09-19T16:43:26;26.40;43.17
9723;DHT22;4900;49.306;8.500;2023-09-19T16:48:20;26.20;43.60
9723;DHT22;4900;49.306;8.500;2023-09-19T16:50:45;26.06;43.92
9723;DHT22;4900;49.306;8.500;2023-09-19T16:53:11;25.97;44.07
9723;DHT22;4900;49.306;8.500;2023-09-19T16:55:37;25.86;44.29
9723;DHT22;4900;49.306;8.500;2023-09-19T16:58:03;25.69;44.54
9723;DHT22;4900;49.306;8.500;2023-09-19T17:00:30;25.55;44.84
9723;DHT22;4900;49.306;8.500;2023-09-19T17:02:56;25.38;45.24
9723;DHT22;4900;49.306;8.500;2023-09-19T17:05:22;25.30;45.24
9723;DHT22;4900;49.306;8.500;2023-09-19T17:07:47;25.28;45.29
9723;DHT22;4900;49.306;8.500;2023-09-19T17:10:13;25.17;45.70